Time;durP1;ratioP1;P1;durP2;ratioP2;P2;SDS_P1;SDS_P2;PMS_P1;PMS_P2;Temp;Humidity;BMP_temperature;BMP_pressure;BME280_temperature;BME280_humidity;BME280_pressure;Samples;Min_cycle;Max_cycle;Signal;HPM_P1;HPM_P2
2024/01/31 00:01:36;;;;;;;5.45;1.55;;;5.60;99.90;;;;;;5040169;28;20086;-77
2024/01/31 00:04:02;;;;;;;8.75;1.75;;;5.60;99.90;;;;;;5035274;28;20548;-77
2024/01/31 00:06:27;;;;;;;5.95;1.50;;;5.50;99.90;;;;;;5037042;28;20051;-77
2024/01/31 00:08:55;;;;;;;10.75;1.80;;;5.50;99.90;;;;;;5038847;28;20044;-77
2024/01/31 00:11:21;;;;;;;6.97;1.80;;;5.60;99.90;;;;;;5037036;28;20079;-77
2024/01/31 00:13:46;;;;;;;10.48;1.63;;;5.50;99.90;;;;;;5055045;28;20486;-77
2024/01/31 00:16:15;;;;;;;7.97;1.80;;;5.50;99.90;;;;;;5053506;28;20091;-77
2024/01/31 00:18:41;;;;;;;10.85;2.05;;;5.50;99.90;;;;;;5055727;28;20102;-77
2024/01/31 00:21:06;;;;;;;4.57;1.40;;;5.50;99.90;;;;;;5035238;28;20040;-77
2024/01/31 00:23:32;;;;;;;8.55;2.50;;;5.60;99.90;;;;;;5055477;28;20044;-77
2024/01/31 00:25:58;;;;;;;8.88;1.52;;;5.60;99.90;;;;;;5037106;28;20139;-77
2024/01/31 00:28:25;;;;;;;11.05;2.15;;;5.60;99.90;;;;;;5038835;28;20110;-77
2024/01/31 00:30:50;;;;;;;10.23;1.85;;;5.50;99.90;;;;;;5055348;28;20072;-77
2024/01/31 00:33:16;;;;;;;8.05;1.60;;;5.50;99.90;;;;;;5054799;28;20569;-77
2024/01/31 00:35:42;;;;;;;8.88;1.67;;;5.50;99.90;;;;;;5042421;28;20055;-77
2024/01/31 00:38:07;;;;;;;5.88;1.58;;;5.50;99.90;;;;;;5042063;28;20041;-77
2024/01/31 00:40:33;;;;;;;8.32;1.63;;;5.50;99.90;;;;;;5058187;28;20762;-77
2024/01/31 00:42:59;;;;;;;7.40;2.03;;;5.50;99.90;;;;;;5041596;28;20064;-77
2024/01/31 00:45:24;;;;;;;8.48;1.85;;;5.50;99.90;;;;;;5057312;28;20435;-77
2024/01/31 00:47:50;;;;;;;8.98;1.90;;;5.50;99.90;;;;;;5056361;28;20032;-77
2024/01/31 00:50:16;;;;;;;4.95;1.23;;;5.50;99.90;;;;;;5038492;28;20045;-77
2024/01/31 00:52:42;;;;;;;5.72;1.80;;;5.50;99.90;;;;;;5058123;28;20492;-77
2024/01/31 00:55:08;;;;;;;8.82;2.13;;;5.40;99.90;;;;;;5057553;28;20512;-77
2024/01/31 00:57:34;;;;;;;7.88;1.50;;;5.50;99.90;;;;;;5038810;28;20424;-77
2024/01/31 01:00:04;;;;;;;5.65;1.45;;;5.50;99.90;;;;;;5039850;28;20028;-77
2024/01/31 01:02:30;;;;;;;7.95;1.45;;;5.40;99.90;;;;;;5035438;28;20037;-77
2024/01/31 01:04:56;;;;;;;10.45;1.80;;;5.50;99.90;;;;;;5058133;28;20040;-78
2024/01/31 01:07:22;;;;;;;5.43;1.45;;;5.50;99.90;;;;;;5040874;28;20121;-77
2024/01/31 01:09:48;;;;;;;8.52;1.48;;;5.50;99.90;;;;;;5039871;28;20036;-77
2024/01/31 01:12:13;;;;;;;7.30;1.80;;;5.50;99.90;;;;;;5070711;28;20613;-77
2024/01/31 01:14:39;;;;;;;7.55;1.35;;;5.50;99.90;;;;;;5040588;28;20098;-77
2024/01/31 01:17:05;;;;;;;7.93;1.77;;;5.40;99.90;;;;;;5057341;28;20499;-77
2024/01/31 01:19:31;;;;;;;8.00;2.25;;;5.40;99.90;;;;;;5036988;28;20033;-77
2024/01/31 01:21:57;;;;;;;5.75;1.35;;;5.40;99.90;;;;;;5057571;28;20037;-77
2024/01/31 01:24:24;;;;;;;7.25;1.30;;;5.40;99.90;;;;;;5055815;28;20037;-77
2024/01/31 01:26:49;;;;;;;5.75;1.35;;;5.40;99.90;;;;;;5052282;28;20135;-77
2024/01/31 01:29:15;;;;;;;4.88;1.40;;;5.50;99.90;;;;;;5039168;28;20048;-77
2024/01/31 01:31:41;;;;;;;3.50;1.10;;;5.40;99.90;;;;;;5038549;28;20075;-77
2024/01/31 01:34:06;;;;;;;12.20;1.50;;;5.40;99.90;;;;;;5055551;28;20545;-77
2024/01/31 01:36:32;;;;;;;4.65;1.55;;;5.40;99.90;;;;;;5054297;28;20032;-77
2024/01/31 01:38:58;;;;;;;8.15;1.58;;;5.40;99.90;;;;;;5055113;28;20086;-77
2024/01/31 01:41:23;;;;;;;8.80;1.88;;;5.40;99.90;;;;;;5057857;28;20032;-77
2024/01/31 01:43:49;;;;;;;6.25;1.58;;;5.40;99.90;;;;;;5038839;28;20041;-77
2024/01/31 01:46:19;;;;;;;15.63;1.73;;;5.40;99.90;;;;;;5040596;28;20438;-77
2024/01/31 01:48:46;;;;;;;4.93;1.50;;;5.40;99.90;;;;;;5057143;28;20040;-77
2024/01/31 01:51:17;;;;;;;5.88;1.50;;;5.40;99.90;;;;;;5036637;28;20398;-78
2024/01/31 01:53:47;;;;;;;9.80;1.30;;;5.40;99.90;;;;;;5037092;28;20396;-77
2024/01/31 01:56:18;;;;;;;7.38;1.60;;;5.40;99.90;;;;;;5054748;28;20047;-77
2024/01/31 01:58:47;;;;;;;5.18;1.50;;;5.40;99.90;;;;;;5058447;28;20036;-77
2024/01/31 02:01:14;;;;;;;7.53;1.45;;;5.40;99.90;;;;;;5051028;28;20029;-77
2024/01/31 02:03:41;;;;;;;7.95;1.45;;;5.40;99.90;;;;;;5039068;28;20035;-78
2024/01/31 02:06:06;;;;;;;7.68;1.40;;;5.30;99.90;;;;;;5057221;28;20049;-77
2024/01/31 02:08:32;;;;;;;5.25;1.30;;;5.30;99.90;;;;;;5056045;28;20396;-77
2024/01/31 02:10:58;;;;;;;4.20;1.17;;;5.30;99.90;;;;;;5037931;28;20037;-77
2024/01/31 02:13:24;;;;;;;5.95;1.02;;;5.30;99.90;;;;;;5057228;28;20391;-77
2024/01/31 02:15:56;;;;;;;4.43;0.93;;;5.20;99.90;;;;;;5042194;28;20277;-77
2024/01/31 02:18:26;;;;;;;7.72;1.02;;;5.20;99.90;;;;;;5055516;28;20402;-77
2024/01/31 02:20:53;;;;;;;6.18;1.17;;;5.20;99.90;;;;;;5041032;28;20492;-77
2024/01/31 02:23:19;;;;;;;5.57;1.08;;;5.20;99.90;;;;;;5040417;28;20036;-77
2024/01/31 02:25:45;;;;;;;4.47;1.40;;;5.10;99.90;;;;;;5056470;28;20064;-77
2024/01/31 02:28:10;;;;;;;7.03;1.58;;;5.10;99.90;;;;;;5055068;28;20045;-77
2024/01/31 02:30:36;;;;;;;4.88;1.20;;;4.90;99.90;;;;;;5039793;28;20116;-77
2024/01/31 02:33:02;;;;;;;6.35;1.23;;;4.80;99.90;;;;;;5052050;28;20056;-77
2024/01/31 02:35:32;;;;;;;5.40;1.40;;;4.80;99.90;;;;;;5039420;28;20040;-77
2024/01/31 02:37:58;;;;;;;7.45;1.58;;;4.80;99.90;;;;;;5056248;28;20048;-77
2024/01/31 02:40:24;;;;;;;4.60;1.20;;;4.80;99.90;;;;;;5058051;28;20055;-77
2024/01/31 02:42:49;;;;;;;5.40;1.05;;;4.70;99.90;;;;;;5057694;28;20059;-77
2024/01/31 02:45:15;;;;;;;5.55;1.67;;;4.70;99.90;;;;;;5037945;28;20032;-77
2024/01/31 02:47:41;;;;;;;5.40;1.25;;;4.60;99.90;;;;;;5054270;28;20434;-77
2024/01/31 02:50:07;;;;;;;4.85;1.58;;;4.60;99.90;;;;;;5056501;28;20048;-77
2024/01/31 02:52:32;;;;;;;9.55;1.75;;;4.60;99.90;;;;;;5037148;28;20427;-77
2024/01/31 02:54:58;;;;;;;4.70;1.23;;;4.60;99.90;;;;;;5040591;28;20055;-77
2024/01/31 02:57:24;;;;;;;4.70;1.33;;;4.50;99.90;;;;;;5055482;28;20551;-77
2024/01/31 02:59:50;;;;;;;1.70;0.88;;;4.50;99.90;;;;;;5039589;28;20048;-77
2024/01/31 03:02:17;;;;;;;5.72;1.17;;;4.50;99.90;;;;;;5055658;28;20032;-77
2024/01/31 03:04:43;;;;;;;3.10;1.27;;;4.40;99.90;;;;;;5036427;28;20063;-77
2024/01/31 03:07:12;;;;;;;5.35;1.17;;;4.40;99.90;;;;;;5070128;28;20254;-77
2024/01/31 03:09:38;;;;;;;5.35;1.17;;;4.40;99.90;;;;;;5056910;28;20101;-77
2024/01/31 03:12:05;;;;;;;4.32;1.10;;;4.40;99.90;;;;;;5055053;28;20476;-77
2024/01/31 03:14:32;;;;;;;3.78;1.13;;;4.40;99.90;;;;;;5038862;28;20056;-77
2024/01/31 03:16:57;;;;;;;6.38;1.30;;;4.30;99.90;;;;;;5032511;28;20166;-78
2024/01/31 03:19:27;;;;;;;5.40;1.55;;;4.30;99.90;;;;;;5039139;28;20029;-77
2024/01/31 03:21:53;;;;;;;6.60;1.50;;;4.30;99.90;;;;;;5038233;28;20176;-78
2024/01/31 03:24:19;;;;;;;5.20;1.38;;;4.30;99.90;;;;;;5055871;28;20539;-77
2024/01/31 03:26:45;;;;;;;5.60;1.50;;;4.30;99.90;;;;;;5054373;28;20218;-78
2024/01/31 03:29:11;;;;;;;6.60;1.65;;;4.20;99.90;;;;;;5034532;28;20040;-78
2024/01/31 03:31:37;;;;;;;7.13;1.50;;;4.20;99.90;;;;;;5052807;28;20581;-78
2024/01/31 03:34:04;;;;;;;3.92;1.45;;;4.20;99.90;;;;;;5038878;28;20037;-78
2024/01/31 03:36:30;;;;;;;5.00;1.33;;;4.20;99.90;;;;;;5057022;28;20044;-78
2024/01/31 03:38:58;;;;;;;3.88;1.33;;;4.20;99.90;;;;;;5054991;28;20098;-78
2024/01/31 03:41:25;;;;;;;8.68;1.50;;;4.20;99.90;;;;;;5056726;28;20485;-78
2024/01/31 03:43:51;;;;;;;6.55;1.45;;;4.10;99.90;;;;;;5039336;28;20082;-78
2024/01/31 03:46:17;;;;;;;5.45;1.33;;;4.20;99.90;;;;;;5054122;28;20857;-78
2024/01/31 03:48:43;;;;;;;6.35;1.38;;;4.20;99.90;;;;;;5068990;28;20119;-77
2024/01/31 03:51:23;;;;;;;9.85;1.60;;;4.20;99.90;;;;;;5055496;28;20466;-78
2024/01/31 03:53:49;;;;;;;6.18;1.33;;;4.20;99.90;;;;;;5054742;28;20149;-78
2024/01/31 03:56:15;;;;;;;9.80;1.83;;;4.20;99.90;;;;;;5051930;28;20062;-78
2024/01/31 03:58:42;;;;;;;5.18;1.75;;;4.10;99.90;;;;;;5053495;28;20443;-78
2024/01/31 04:01:08;;;;;;;5.22;1.33;;;4.00;99.90;;;;;;5053600;28;20032;-78
2024/01/31 04:03:36;;;;;;;9.05;1.92;;;4.00;99.90;;;;;;5037593;28;20047;-78
2024/01/31 04:06:02;;;;;;;9.45;1.92;;;3.90;99.90;;;;;;5040558;28;20630;-78
2024/01/31 04:08:28;;;;;;;7.30;1.83;;;3.90;99.90;;;;;;5070018;28;20041;-78
2024/01/31 04:10:54;;;;;;;2.42;1.45;;;3.80;99.90;;;;;;5041120;28;20043;-78
2024/01/31 04:13:19;;;;;;;4.70;1.65;;;3.70;99.90;;;;;;5059179;28;20048;-78
2024/01/31 04:15:46;;;;;;;7.28;1.77;;;3.70;99.90;;;;;;5056239;28;20031;-78
2024/01/31 04:18:12;;;;;;;4.35;1.77;;;3.70;99.90;;;;;;5055691;28;20489;-78
2024/01/31 04:20:38;;;;;;;4.57;1.60;;;3.60;99.90;;;;;;5058943;28;20036;-78
2024/01/31 04:23:08;;;;;;;4.90;1.52;;;3.50;99.90;;;;;;5042105;28;20499;-78
2024/01/31 04:25:34;;;;;;;2.85;1.25;;;3.50;99.90;;;;;;5037508;28;20918;-78
2024/01/31 04:28:00;;;;;;;5.10;1.48;;;3.40;99.90;;;;;;5059155;28;20048;-78
2024/01/31 04:30:26;;;;;;;6.45;1.70;;;3.50;99.90;;;;;;5059941;28;20051;-78
2024/01/31 04:32:52;;;;;;;4.35;1.17;;;3.40;99.90;;;;;;5055887;28;20036;-78
2024/01/31 04:35:18;;;;;;;4.60;1.52;;;3.40;99.90;;;;;;5040109;28;20041;-78
2024/01/31 04:37:43;;;;;;;4.93;1.40;;;3.40;99.90;;;;;;5053305;28;20131;-78
2024/01/31 04:40:10;;;;;;;7.90;1.75;;;3.50;99.90;;;;;;5059966;28;20037;-77
2024/01/31 04:42:36;;;;;;;4.20;1.85;;;3.40;99.90;;;;;;5056815;28;20561;-78
2024/01/31 04:45:03;;;;;;;5.28;1.70;;;3.50;99.90;;;;;;5058118;28;20087;-78
2024/01/31 04:47:28;;;;;;;4.97;1.52;;;3.40;99.90;;;;;;5037955;28;20505;-78
2024/01/31 04:49:56;;;;;;;5.53;1.00;;;3.50;99.90;;;;;;5060138;28;20489;-78
2024/01/31 04:52:22;;;;;;;4.72;1.50;;;3.40;99.90;;;;;;5040033;28;20040;-78
2024/01/31 04:54:50;;;;;;;5.25;1.38;;;3.40;99.90;;;;;;5042287;28;20313;-78
2024/01/31 04:57:16;;;;;;;6.95;1.30;;;3.30;99.90;;;;;;5039623;28;20059;-78
2024/01/31 04:59:42;;;;;;;3.72;1.20;;;3.30;99.90;;;;;;5057779;28;20040;-78
2024/01/31 05:02:08;;;;;;;5.18;1.27;;;3.30;99.90;;;;;;5034651;28;20047;-78
2024/01/31 05:04:35;;;;;;;2.50;1.10;;;3.30;99.90;;;;;;5057954;28;20111;-78
2024/01/31 05:07:00;;;;;;;5.53;1.30;;;3.20;99.90;;;;;;5040201;28;20064;-78
2024/01/31 05:09:26;;;;;;;3.85;1.08;;;3.30;99.90;;;;;;5057637;28;20457;-78
2024/01/31 05:11:52;;;;;;;4.05;1.20;;;3.20;99.90;;;;;;5069245;28;20387;-78
2024/01/31 05:14:18;;;;;;;4.30;1.05;;;3.20;99.90;;;;;;5038985;28;20067;-78
2024/01/31 05:16:44;;;;;;;4.30;1.25;;;3.20;99.90;;;;;;5055580;28;20055;-78
2024/01/31 05:19:13;;;;;;;3.47;0.98;;;3.30;99.90;;;;;;5058575;28;20037;-78
2024/01/31 05:21:48;;;;;;;5.20;1.45;;;3.30;99.90;;;;;;5041656;28;20028;-78
2024/01/31 05:24:15;;;;;;;5.05;1.45;;;3.30;99.90;;;;;;5042681;28;20507;-78
2024/01/31 05:26:42;;;;;;;4.13;1.25;;;3.50;99.90;;;;;;5057473;28;20105;-78
2024/01/31 05:29:08;;;;;;;7.53;1.52;;;3.50;99.90;;;;;;5059670;28;20050;-77
2024/01/31 05:31:33;;;;;;;3.90;1.20;;;3.50;99.90;;;;;;5040908;28;20564;-78
2024/01/31 05:33:59;;;;;;;5.03;0.90;;;3.50;99.90;;;;;;5060494;28;20040;-78
2024/01/31 05:36:25;;;;;;;7.75;1.38;;;3.50;99.90;;;;;;5038933;28;20087;-78
2024/01/31 05:38:53;;;;;;;2.35;1.02;;;3.60;99.90;;;;;;5058910;28;20037;-78
2024/01/31 05:41:22;;;;;;;2.15;0.82;;;3.60;99.90;;;;;;5043169;28;20032;-78
2024/01/31 05:43:48;;;;;;;5.97;1.10;;;3.60;99.90;;;;;;5057296;28;20592;-78
2024/01/31 05:46:16;;;;;;;5.38;1.10;;;3.70;99.90;;;;;;5059405;28;20107;-78
2024/01/31 05:48:43;;;;;;;3.05;1.23;;;3.70;99.90;;;;;;5058041;28;20499;-78
2024/01/31 05:51:09;;;;;;;5.47;1.25;;;3.90;99.90;;;;;;5059185;28;20123;-79
2024/01/31 05:53:36;;;;;;;4.50;1.20;;;3.90;99.90;;;;;;5042043;28;20490;-78
2024/01/31 05:56:02;;;;;;;2.70;1.10;;;3.90;99.90;;;;;;5055376;28;20075;-78
2024/01/31 05:58:33;;;;;;;6.13;1.33;;;3.80;99.90;;;;;;5063744;28;20072;-78
2024/01/31 06:00:59;;;;;;;2.47;1.10;;;4.00;99.90;;;;;;5060796;28;20039;-78
2024/01/31 06:07:10;;;;;;;4.05;1.35;;;4.00;99.90;;;;;;5059931;28;20043;-78
2024/01/31 06:09:36;;;;;;;8.30;1.17;;;4.00;99.90;;;;;;5049464;28;20055;-78
2024/01/31 06:14:51;;;;;;;9.98;1.77;;;4.00;99.90;;;;;;5006902;22;20112;-78
2024/01/31 06:17:17;;;;;;;6.50;1.73;;;4.00;99.90;;;;;;5029803;23;20763;-78
2024/01/31 06:19:49;;;;;;;6.45;1.52;;;4.00;99.90;;;;;;4973041;28;20082;-78
2024/01/31 06:22:14;;;;;;;7.13;2.00;;;4.00;99.90;;;;;;4973830;28;20058;-78
2024/01/31 06:24:49;;;;;;;6.20;1.80;;;4.00;99.90;;;;;;4962486;28;20053;-78
2024/01/31 06:27:18;;;;;;;7.35;1.98;;;4.00;99.90;;;;;;4965448;28;20310;-78
2024/01/31 06:29:49;;;;;;;7.05;1.63;;;4.10;99.90;;;;;;4964891;28;20043;-78
2024/01/31 06:32:21;;;;;;;6.78;1.70;;;4.10;99.90;;;;;;4943574;28;20051;-78
2024/01/31 06:34:47;;;;;;;5.53;1.40;;;4.10;99.90;;;;;;4957550;28;20070;-78
2024/01/31 06:37:19;;;;;;;6.82;1.20;;;4.10;99.90;;;;;;4958594;28;20206;-78
2024/01/31 06:39:45;;;;;;;7.57;1.40;;;4.20;99.90;;;;;;4959200;28;20066;-78
2024/01/31 06:42:45;;;;;;;7.90;1.65;;;4.20;99.90;;;;;;4963722;28;20628;-78
2024/01/31 06:45:11;;;;;;;5.05;1.73;;;4.30;99.90;;;;;;4957588;28;20034;-78
2024/01/31 06:47:36;;;;;;;6.07;1.50;;;4.20;99.90;;;;;;4970763;28;20043;-78
2024/01/31 06:50:02;;;;;;;10.35;1.75;;;4.30;99.90;;;;;;5110462;23;20419;-78
2024/01/31 06:52:28;;;;;;;8.00;1.50;;;4.30;99.90;;;;;;4947180;28;20075;-78
2024/01/31 06:54:54;;;;;;;7.85;1.77;;;4.30;99.90;;;;;;4964002;28;20038;-78
2024/01/31 06:57:20;;;;;;;5.18;1.65;;;4.30;99.90;;;;;;4967095;28;20678;-78
2024/01/31 06:59:46;;;;;;;6.47;1.70;;;4.40;99.90;;;;;;4970626;28;20487;-78
2024/01/31 07:02:12;;;;;;;7.50;2.05;;;4.40;99.90;;;;;;4944568;28;20041;-79
2024/01/31 07:04:38;;;;;;;6.20;1.70;;;4.50;99.90;;;;;;4949518;28;20529;-78
2024/01/31 07:07:04;;;;;;;8.02;1.80;;;4.50;99.90;;;;;;4963466;28;20062;-78
2024/01/31 07:09:32;;;;;;;6.53;1.50;;;4.50;99.90;;;;;;4946120;28;20145;-78
2024/01/31 07:11:57;;;;;;;5.53;1.70;;;4.50;99.90;;;;;;4943158;28;20042;-78
2024/01/31 07:14:23;;;;;;;7.53;2.35;;;4.60;99.90;;;;;;4974522;28;20045;-78
2024/01/31 07:16:49;;;;;;;5.80;1.70;;;4.60;99.90;;;;;;4963118;28;20038;-78
2024/01/31 07:19:14;;;;;;;8.50;2.45;;;4.60;99.90;;;;;;4944599;28;20112;-78
2024/01/31 07:21:41;;;;;;;8.40;2.22;;;4.60;99.90;;;;;;4989395;28;20129;-78
2024/01/31 07:24:07;;;;;;;6.13;2.28;;;4.70;99.90;;;;;;4945116;28;20031;-78
2024/01/31 07:26:32;;;;;;;4.65;1.67;;;4.70;99.90;;;;;;4946577;28;21342;-78
2024/01/31 07:29:01;;;;;;;9.93;2.10;;;4.70;99.90;;;;;;4986077;28;20513;-78
2024/01/31 07:31:27;;;;;;;7.90;2.47;;;4.70;99.90;;;;;;4960356;28;20050;-78
2024/01/31 07:33:52;;;;;;;6.32;1.92;;;4.80;99.90;;;;;;4958416;28;20137;-78
2024/01/31 07:36:19;;;;;;;5.93;2.35;;;4.80;99.90;;;;;;4947063;28;20097;-78
2024/01/31 07:38:46;;;;;;;4.25;1.70;;;4.80;99.90;;;;;;4960912;28;20046;-78
2024/01/31 07:41:15;;;;;;;5.00;1.85;;;4.70;99.90;;;;;;4963011;28;20130;-78
2024/01/31 07:43:41;;;;;;;3.72;1.70;;;4.80;99.90;;;;;;4974903;28;20105;-78
2024/01/31 07:46:08;;;;;;;6.97;2.42;;;4.80;99.90;;;;;;4964835;28;20034;-78
2024/01/31 07:48:34;;;;;;;5.53;2.15;;;4.80;99.90;;;;;;4945853;28;20047;-78
2024/01/31 07:51:04;;;;;;;4.90;2.40;;;4.80;99.90;;;;;;4965318;28;20081;-78
2024/01/31 07:53:30;;;;;;;5.70;2.22;;;4.80;99.90;;;;;;4964964;28;20046;-78
2024/01/31 07:55:56;;;;;;;8.77;2.30;;;4.80;99.90;;;;;;4948842;28;20034;-78
2024/01/31 07:58:22;;;;;;;9.35;2.47;;;4.80;99.90;;;;;;4966277;28;20113;-78
2024/01/31 08:00:48;;;;;;;12.77;2.45;;;4.80;99.90;;;;;;4951381;28;20035;-78
2024/01/31 08:03:13;;;;;;;7.70;2.67;;;4.90;99.90;;;;;;4950745;28;20145;-78
2024/01/31 08:05:39;;;;;;;5.80;2.10;;;4.90;99.90;;;;;;4951403;28;20046;-78
2024/01/31 08:08:16;;;;;;;5.68;2.08;;;4.90;99.90;;;;;;4954945;28;20072;-78
2024/01/31 08:10:42;;;;;;;11.98;2.50;;;4.90;99.90;;;;;;4963980;28;20038;-78
2024/01/31 08:13:08;;;;;;;10.50;2.45;;;4.90;99.90;;;;;;4947805;28;20494;-78
2024/01/31 08:15:34;;;;;;;6.20;2.05;;;5.00;99.90;;;;;;4952211;28;20410;-78
2024/01/31 08:18:03;;;;;;;5.50;2.60;;;5.00;99.90;;;;;;4962296;28;20487;-78
2024/01/31 08:20:30;;;;;;;5.47;2.42;;;5.00;99.90;;;;;;4966047;28;20034;-78
2024/01/31 08:22:56;;;;;;;11.98;2.17;;;5.00;99.90;;;;;;4951933;28;20043;-78
2024/01/31 08:25:23;;;;;;;5.70;2.00;;;5.10;99.90;;;;;;4964640;28;20110;-78
2024/01/31 08:27:49;;;;;;;6.53;2.47;;;5.10;99.90;;;;;;4965713;28;20445;-78
2024/01/31 08:30:16;;;;;;;4.20;2.25;;;5.10;99.90;;;;;;4962868;28;20566;-78
2024/01/31 08:32:43;;;;;;;5.63;2.50;;;5.10;99.90;;;;;;4946391;28;20049;-78
2024/01/31 08:35:10;;;;;;;7.00;2.67;;;5.20;99.90;;;;;;4964124;28;20395;-78
2024/01/31 08:37:36;;;;;;;6.25;2.50;;;5.20;99.90;;;;;;4951546;28;20051;-78
2024/01/31 08:40:03;;;;;;;4.25;2.47;;;5.20;99.90;;;;;;4977919;28;20210;-78
2024/01/31 08:42:33;;;;;;;6.93;3.17;;;5.30;99.90;;;;;;4948504;28;20085;-78
2024/01/31 08:44:59;;;;;;;8.43;3.65;;;5.30;99.90;;;;;;4954445;28;20041;-78
2024/01/31 08:47:24;;;;;;;7.53;3.17;;;5.40;99.90;;;;;;4945425;28;20050;-78
2024/01/31 08:49:50;;;;;;;10.82;3.60;;;5.40;99.90;;;;;;4944686;28;20058;-78
2024/01/31 08:52:16;;;;;;;8.00;3.28;;;5.40;99.90;;;;;;4963323;28;20046;-78
2024/01/31 08:54:42;;;;;;;6.22;3.10;;;5.40;99.90;;;;;;4961996;28;20446;-78
2024/01/31 08:57:08;;;;;;;5.97;3.28;;;5.40;99.90;;;;;;4950913;28;20240;-78
2024/01/31 08:59:34;;;;;;;6.15;3.58;;;5.50;99.90;;;;;;4960314;28;20039;-78
2024/01/31 09:01:59;;;;;;;3.95;3.42;;;5.50;99.90;;;;;;4954471;28;20045;-78
2024/01/31 09:04:28;;;;;;;7.75;3.47;;;5.50;99.90;;;;;;4958450;28;20039;-78
2024/01/31 09:06:54;;;;;;;7.18;3.63;;;5.60;99.90;;;;;;4958909;28;20121;-78
2024/01/31 09:09:19;;;;;;;9.05;3.70;;;5.60;99.90;;;;;;4956979;28;20503;-78
2024/01/31 09:11:45;;;;;;;8.55;4.40;;;5.60;99.90;;;;;;4957533;28;20620;-78
2024/01/31 09:14:12;;;;;;;8.07;4.53;;;5.70;99.90;;;;;;4944139;28;20055;-78
2024/01/31 09:16:38;;;;;;;5.93;4.07;;;5.70;99.90;;;;;;4956710;28;20042;-78
2024/01/31 09:19:04;;;;;;;6.82;4.28;;;5.80;99.90;;;;;;4954069;28;20026;-78
2024/01/31 09:21:30;;;;;;;7.35;4.03;;;5.90;99.90;;;;;;4943102;28;20043;-78
2024/01/31 09:23:59;;;;;;;6.32;4.63;;;5.80;99.90;;;;;;4956367;28;20441;-78
2024/01/31 09:26:25;;;;;;;7.22;4.72;;;5.90;99.90;;;;;;4956157;28;20066;-78
2024/01/31 09:28:50;;;;;;;8.23;5.25;;;6.00;99.90;;;;;;4940208;28;20050;-78
2024/01/31 09:31:26;;;;;;;6.38;4.72;;;6.10;99.90;;;;;;4939995;28;20062;-78
2024/01/31 09:33:54;;;;;;;7.07;5.07;;;6.10;99.90;;;;;;4957202;28;20541;-78
2024/01/31 09:36:20;;;;;;;6.68;4.80;;;6.10;99.90;;;;;;4940124;28;20054;-78
2024/01/31 09:38:49;;;;;;;7.25;4.50;;;6.10;99.90;;;;;;4955969;28;20541;-78
2024/01/31 09:41:19;;;;;;;5.53;4.53;;;6.20;99.90;;;;;;4941150;28;20062;-78
2024/01/31 09:43:45;;;;;;;5.68;4.35;;;6.20;99.90;;;;;;4953871;28;20036;-78
2024/01/31 09:46:12;;;;;;;6.97;4.57;;;6.20;99.90;;;;;;4941953;28;20051;-78
2024/01/31 09:48:39;;;;;;;7.47;5.22;;;6.30;99.90;;;;;;4956320;28;20446;-78
2024/01/31 09:51:07;;;;;;;7.72;4.93;;;6.30;99.90;;;;;;4959263;28;20038;-78
2024/01/31 09:53:34;;;;;;;8.25;5.05;;;6.30;99.90;;;;;;4945357;28;20120;-78
2024/01/31 09:56:00;;;;;;;9.00;5.20;;;6.40;99.90;;;;;;4961685;28;20046;-78
2024/01/31 09:58:26;;;;;;;7.88;5.38;;;6.40;99.90;;;;;;4943058;28;20043;-78
2024/01/31 10:00:53;;;;;;;9.00;5.03;;;6.40;99.90;;;;;;4944356;28;20453;-78
2024/01/31 10:03:18;;;;;;;6.88;5.18;;;6.40;99.90;;;;;;4944885;28;20482;-78
2024/01/31 10:05:44;;;;;;;7.70;5.25;;;6.40;99.90;;;;;;4961220;28;20121;-78
2024/01/31 10:08:10;;;;;;;6.80;5.38;;;6.40;99.90;;;;;;4943862;28;20145;-78
2024/01/31 10:10:37;;;;;;;8.80;5.97;;;6.40;99.90;;;;;;4961389;28;20042;-78
2024/01/31 10:13:04;;;;;;;7.47;5.22;;;6.40;99.90;;;;;;4960119;28;20042;-78
2024/01/31 10:15:31;;;;;;;7.32;5.10;;;6.50;99.90;;;;;;4959447;28;20041;-78
2024/01/31 10:17:57;;;;;;;9.00;5.38;;;6.50;99.90;;;;;;4957470;28;20042;-78
2024/01/31 10:20:23;;;;;;;10.40;5.50;;;6.50;99.90;;;;;;4960841;28;20435;-78
2024/01/31 10:22:48;;;;;;;7.55;5.78;;;6.60;99.90;;;;;;4958563;28;20042;-77
2024/01/31 10:25:17;;;;;;;8.48;6.00;;;6.70;99.90;;;;;;4944799;28;20038;-77
2024/01/31 10:27:46;;;;;;;8.55;5.85;;;6.70;99.90;;;;;;4946041;28;20496;-78
2024/01/31 10:30:13;;;;;;;9.25;5.85;;;6.70;99.90;;;;;;4958878;28;20633;-78
2024/01/31 10:32:40;;;;;;;8.35;6.05;;;6.80;99.90;;;;;;4942107;28;20050;-78
2024/01/31 10:35:07;;;;;;;10.25;6.15;;;6.80;99.90;;;;;;4946289;28;20042;-78
2024/01/31 10:37:37;;;;;;;9.23;6.03;;;6.70;59.80;;;;;;4958475;28;20043;-78
2024/01/31 10:40:05;;;;;;;7.53;5.95;;;6.80;25.10;;;;;;4943318;28;20868;-77
2024/01/31 10:42:31;;;;;;;9.43;6.47;;;6.80;55.40;;;;;;4939638;28;20112;-78
2024/01/31 10:44:58;;;;;;;8.70;6.13;;;6.80;51.10;;;;;;4960015;28;20505;-77
2024/01/31 10:47:24;;;;;;;7.15;5.85;;;6.90;99.90;;;;;;4958380;28;20061;-77
2024/01/31 10:49:49;;;;;;;8.82;5.68;;;6.90;19.10;;;;;;4959403;28;20061;-77
2024/01/31 10:52:29;;;;;;;7.45;5.90;;;6.90;99.90;;;;;;4943327;28;20042;-77
2024/01/31 10:54:59;;;;;;;7.50;5.55;;;6.90;99.90;;;;;;4949112;28;20042;-78
2024/01/31 10:57:26;;;;;;;6.20;5.05;;;7.00;99.90;;;;;;4959240;28;20051;-78
2024/01/31 10:59:55;;;;;;;10.18;5.78;;;7.00;99.90;;;;;;4961071;28;20046;-77
2024/01/31 11:02:29;;;;;;;7.57;5.07;;;7.00;99.90;;;;;;4989847;28;20042;-77
2024/01/31 11:04:59;;;;;;;6.97;5.03;;;7.00;55.60;;;;;;4962080;28;20534;-78
2024/01/31 11:07:25;;;;;;;7.35;5.35;;;7.00;1.00;;;;;;4948396;28;20045;-77
2024/01/31 11:09:50;;;;;;;8.52;5.47;;;7.00;1.00;;;;;;4957871;28;20076;-77
2024/01/31 11:12:17;;;;;;;7.75;5.00;;;7.10;45.50;;;;;;4956900;28;20073;-78
2024/01/31 11:14:47;;;;;;;6.85;5.35;;;7.10;1.00;;;;;;4957848;28;20042;-77
2024/01/31 11:17:23;;;;;;;6.00;4.80;;;7.00;1.70;;;;;;4941384;28;20136;-77
2024/01/31 11:19:52;;;;;;;6.93;5.20;;;7.10;27.80;;;;;;4962129;28;20073;-78
2024/01/31 11:22:19;;;;;;;6.82;5.10;;;7.10;1.00;;;;;;4958846;28;20048;-77
2024/01/31 11:24:49;;;;;;;8.02;5.88;;;7.20;1.00;;;;;;4965226;28;20454;-77
2024/01/31 11:27:17;;;;;;;6.90;5.07;;;7.20;1.00;;;;;;4959460;28;20050;-77
2024/01/31 11:29:46;;;;;;;7.03;5.05;;;7.20;1.00;;;;;;4946155;28;20054;-78
2024/01/31 11:32:12;;;;;;;6.38;4.85;;;7.10;99.90;;;;;;4960769;28;20571;-77
2024/01/31 11:34:42;;;;;;;8.57;5.45;;;7.20;99.90;;;;;;4945202;28;20050;-78
2024/01/31 11:37:08;;;;;;;8.00;5.15;;;7.20;99.90;;;;;;4959932;28;20133;-78
2024/01/31 11:39:34;;;;;;;8.52;5.70;;;7.20;99.90;;;;;;4958041;28;20034;-77
2024/01/31 11:42:00;;;;;;;6.85;5.00;;;7.10;99.90;;;;;;4960021;28;20144;-77
2024/01/31 11:44:29;;;;;;;7.28;5.18;;;7.10;99.90;;;;;;4946041;28;20046;-77
2024/01/31 11:46:56;;;;;;;7.28;5.22;;;7.10;99.90;;;;;;4942634;28;20553;-77
2024/01/31 11:49:22;;;;;;;8.18;5.28;;;7.10;99.90;;;;;;4943757;28;20061;-77
2024/01/31 11:51:48;;;;;;;7.88;5.82;;;7.10;99.90;;;;;;4959391;28;20082;-77
2024/01/31 11:54:14;;;;;;;8.60;5.75;;;7.10;99.90;;;;;;4960408;28;20050;-77
2024/01/31 11:56:41;;;;;;;8.05;5.95;;;7.00;99.90;;;;;;4957382;28;20500;-77
2024/01/31 11:59:08;;;;;;;8.40;6.95;;;7.00;99.90;;;;;;4962689;28;20041;-77
2024/01/31 12:01:34;;;;;;;9.65;6.25;;;7.00;99.90;;;;;;4941388;28;20490;-77
2024/01/31 12:04:07;;;;;;;7.70;5.93;;;7.00;99.90;;;;;;4945739;28;20306;-77
2024/01/31 12:06:32;;;;;;;7.50;5.82;;;7.00;99.90;;;;;;4956212;28;20099;-77
2024/01/31 12:08:59;;;;;;;7.35;5.95;;;7.00;99.90;;;;;;4957827;28;20391;-77
2024/01/31 12:11:25;;;;;;;7.72;5.80;;;7.00;99.90;;;;;;4957532;28;20026;-77
2024/01/31 12:13:53;;;;;;;8.30;6.38;;;7.00;99.90;;;;;;4960870;28;20042;-77
2024/01/31 12:16:19;;;;;;;8.45;6.57;;;6.90;99.90;;;;;;4944287;28;20031;-77
2024/01/31 12:18:44;;;;;;;8.57;6.18;;;7.00;99.90;;;;;;4959481;28;20042;-77
2024/01/31 12:21:12;;;;;;;9.13;7.13;;;7.00;99.90;;;;;;4959703;28;20042;-78
2024/01/31 12:23:38;;;;;;;9.30;7.20;;;7.00;99.90;;;;;;4960138;28;20117;-77
2024/01/31 12:26:04;;;;;;;7.97;6.72;;;6.90;99.90;;;;;;4961612;28;20249;-77
2024/01/31 12:28:30;;;;;;;8.80;6.75;;;7.00;99.90;;;;;;4939602;28;20050;-77
2024/01/31 12:30:56;;;;;;;8.93;7.18;;;7.00;99.90;;;;;;4961449;28;20045;-77
2024/01/31 12:33:22;;;;;;;11.00;8.23;;;7.00;99.90;;;;;;4962368;28;20125;-77
2024/01/31 12:35:48;;;;;;;9.70;8.13;;;7.00;99.90;;;;;;4948426;28;20034;-77
2024/01/31 12:38:14;;;;;;;10.43;8.73;;;7.10;99.90;;;;;;4963277;28;20039;-77
2024/01/31 12:40:40;;;;;;;12.35;8.75;;;7.00;99.90;;;;;;4961577;28;20030;-77
2024/01/31 12:43:06;;;;;;;9.60;8.30;;;7.10;99.90;;;;;;4960264;28;20034;-77
2024/01/31 12:45:33;;;;;;;8.98;7.97;;;7.10;99.90;;;;;;4962510;28;20050;-77
2024/01/31 12:47:59;;;;;;;12.52;9.40;;;7.10;99.90;;;;;;4957841;28;20050;-77
2024/01/31 12:50:25;;;;;;;10.75;8.98;;;7.20;99.90;;;;;;4990685;28;20051;-77
2024/01/31 12:52:52;;;;;;;14.15;8.98;;;7.10;99.90;;;;;;4964322;28;20050;-77
2024/01/31 12:55:18;;;;;;;12.18;9.00;;;7.20;99.90;;;;;;4991745;28;20092;-77
2024/01/31 12:57:44;;;;;;;11.65;9.35;;;7.20;99.90;;;;;;4960629;28;20497;-77
2024/01/31 13:00:10;;;;;;;12.23;9.57;;;7.30;99.90;;;;;;4961350;28;20062;-77